sensor_id;sensor_type;location;lat;lon;timestamp;P1;durP1;ratioP1;P2;durP2;ratioP2
75220;SDS011;63802;53.232;6.570;2023-11-19T00:02:18;40.35;;;13.60;;
75220;SDS011;63802;53.232;6.570;2023-11-19T00:04:44;45.05;;;12.20;;
75220;SDS011;63802;53.232;6.570;2023-11-19T00:07:10;50.58;;;13.98;;
75220;SDS011;63802;53.232;6.570;2023-11-19T00:09:37;43.20;;;13.73;;
75220;SDS011;63802;53.232;6.570;2023-11-19T00:12:03;52.92;;;13.70;;
75220;SDS011;63802;53.232;6.570;2023-11-19T00:14:29;63.55;;;13.75;;
75220;SDS011;63802;53.232;6.570;2023-11-19T00:16:55;48.95;;;13.80;;
75220;SDS011;63802;53.232;6.570;2023-11-19T00:19:20;45.33;;;12.15;;
75220;SDS011;63802;53.232;6.570;2023-11-19T00:21:46;45.40;;;12.63;;
75220;SDS011;63802;53.232;6.570;2023-11-19T00:24:12;46.75;;;11.90;;
75220;SDS011;63802;53.232;6.570;2023-11-19T00:26:37;43.33;;;12.48;;
75220;SDS011;63802;53.232;6.570;2023-11-19T00:29:06;39.17;;;11.38;;
75220;SDS011;63802;53.232;6.570;2023-11-19T00:31:32;45.20;;;11.40;;
75220;SDS011;63802;53.232;6.570;2023-11-19T00:33:58;44.97;;;10.88;;
75220;SDS011;63802;53.232;6.570;2023-11-19T00:36:23;37.67;;;9.85;;
75220;SDS011;63802;53.232;6.570;2023-11-19T00:38:49;37.38;;;9.85;;
75220;SDS011;63802;53.232;6.570;2023-11-19T00:41:15;28.27;;;8.52;;
75220;SDS011;63802;53.232;6.570;2023-11-19T00:43:41;40.60;;;8.95;;
75220;SDS011;63802;53.232;6.570;2023-11-19T00:46:07;32.80;;;9.30;;
75220;SDS011;63802;53.232;6.570;2023-11-19T00:48:32;38.22;;;7.82;;
75220;SDS011;63802;53.232;6.570;2023-11-19T00:50:58;29.80;;;7.55;;
75220;SDS011;63802;53.232;6.570;2023-11-19T00:53:24;37.70;;;6.57;;
75220;SDS011;63802;53.232;6.570;2023-11-19T00:55:49;33.42;;;7.15;;
75220;SDS011;63802;53.232;6.570;2023-11-19T00:58:15;27.38;;;6.78;;
75220;SDS011;63802;53.232;6.570;2023-11-19T01:00:42;31.52;;;6.20;;
75220;SDS011;63802;53.232;6.570;2023-11-19T01:03:08;28.73;;;6.13;;
75220;SDS011;63802;53.232;6.570;2023-11-19T01:05:35;25.23;;;5.40;;
75220;SDS011;63802;53.232;6.570;2023-11-19T01:08:00;30.23;;;6.70;;
75220;SDS011;63802;53.232;6.570;2023-11-19T01:10:26;32.35;;;6.30;;
75220;SDS011;63802;53.232;6.570;2023-11-19T01:12:51;34.08;;;5.88;;
75220;SDS011;63802;53.232;6.570;2023-11-19T01:15:17;28.75;;;5.70;;
75220;SDS011;63802;53.232;6.570;2023-11-19T01:17:43;23.55;;;4.43;;
75220;SDS011;63802;53.232;6.570;2023-11-19T01:20:09;22.65;;;4.65;;
75220;SDS011;63802;53.232;6.570;2023-11-19T01:22:37;31.35;;;5.55;;
75220;SDS011;63802;53.232;6.570;2023-11-19T01:25:02;36.00;;;5.68;;
75220;SDS011;63802;53.232;6.570;2023-11-19T01:27:30;24.95;;;4.60;;
75220;SDS011;63802;53.232;6.570;2023-11-19T01:29:55;34.85;;;4.72;;
75220;SDS011;63802;53.232;6.570;2023-11-19T01:32:22;28.42;;;5.28;;
75220;SDS011;63802;53.232;6.570;2023-11-19T01:34:49;28.90;;;4.90;;
75220;SDS011;63802;53.232;6.570;2023-11-19T01:37:14;39.28;;;5.32;;
75220;SDS011;63802;53.232;6.570;2023-11-19T01:39:43;32.92;;;5.10;;
75220;SDS011;63802;53.232;6.570;2023-11-19T01:42:09;30.05;;;4.82;;
75220;SDS011;63802;53.232;6.570;2023-11-19T01:44:36;38.45;;;5.57;;
75220;SDS011;63802;53.232;6.570;2023-11-19T01:47:02;27.55;;;5.28;;
75220;SDS011;63802;53.232;6.570;2023-11-19T01:49:28;27.23;;;4.85;;
75220;SDS011;63802;53.232;6.570;2023-11-19T01:51:56;41.15;;;5.55;;
75220;SDS011;63802;53.232;6.570;2023-11-19T01:54:23;34.58;;;5.45;;
75220;SDS011;63802;53.232;6.570;2023-11-19T01:56:49;37.33;;;5.40;;
75220;SDS011;63802;53.232;6.570;2023-11-19T01:59:14;27.08;;;4.70;;
75220;SDS011;63802;53.232;6.570;2023-11-19T02:01:41;32.88;;;4.13;;
75220;SDS011;63802;53.232;6.570;2023-11-19T02:04:08;30.63;;;4.57;;
75220;SDS011;63802;53.232;6.570;2023-11-19T02:06:34;24.17;;;4.13;;
75220;SDS011;63802;53.232;6.570;2023-11-19T02:09:02;33.35;;;4.25;;
75220;SDS011;63802;53.232;6.570;2023-11-19T02:11:35;27.40;;;4.47;;
75220;SDS011;63802;53.232;6.570;2023-11-19T02:14:01;37.25;;;5.03;;
75220;SDS011;63802;53.232;6.570;2023-11-19T02:16:28;23.20;;;4.00;;
75220;SDS011;63802;53.232;6.570;2023-11-19T02:18:54;37.40;;;4.93;;
75220;SDS011;63802;53.232;6.570;2023-11-19T02:21:20;29.45;;;4.53;;
75220;SDS011;63802;53.232;6.570;2023-11-19T02:23:45;29.73;;;4.53;;
75220;SDS011;63802;53.232;6.570;2023-11-19T02:28:51;31.38;;;4.97;;
75220;SDS011;63802;53.232;6.570;2023-11-19T02:31:17;28.92;;;4.70;;
75220;SDS011;63802;53.232;6.570;2023-11-19T02:33:44;28.25;;;4.68;;
75220;SDS011;63802;53.232;6.570;2023-11-19T02:36:13;28.60;;;4.68;;
75220;SDS011;63802;53.232;6.570;2023-11-19T02:38:38;41.13;;;5.00;;
75220;SDS011;63802;53.232;6.570;2023-11-19T02:41:03;30.50;;;4.70;;
75220;SDS011;63802;53.232;6.570;2023-11-19T02:43:30;36.25;;;5.15;;
75220;SDS011;63802;53.232;6.570;2023-11-19T02:45:58;37.58;;;5.00;;
75220;SDS011;63802;53.232;6.570;2023-11-19T02:48:27;32.65;;;4.65;;
75220;SDS011;63802;53.232;6.570;2023-11-19T02:50:52;29.55;;;4.80;;
75220;SDS011;63802;53.232;6.570;2023-11-19T02:53:18;40.50;;;5.45;;
75220;SDS011;63802;53.232;6.570;2023-11-19T02:55:46;33.70;;;4.60;;
75220;SDS011;63802;53.232;6.570;2023-11-19T02:58:14;29.40;;;4.25;;
75220;SDS011;63802;53.232;6.570;2023-11-19T03:00:49;25.30;;;4.50;;
75220;SDS011;63802;53.232;6.570;2023-11-19T03:03:23;33.58;;;4.95;;
75220;SDS011;63802;53.232;6.570;2023-11-19T03:05:54;31.35;;;3.72;;
75220;SDS011;63802;53.232;6.570;2023-11-19T03:08:20;28.40;;;5.43;;
75220;SDS011;63802;53.232;6.570;2023-11-19T03:10:47;30.77;;;4.78;;
75220;SDS011;63802;53.232;6.570;2023-11-19T03:13:13;25.60;;;3.97;;
75220;SDS011;63802;53.232;6.570;2023-11-19T03:15:42;37.45;;;5.18;;
75220;SDS011;63802;53.232;6.570;2023-11-19T03:18:07;34.10;;;5.30;;
75220;SDS011;63802;53.232;6.570;2023-11-19T03:20:33;22.60;;;3.92;;
75220;SDS011;63802;53.232;6.570;2023-11-19T03:22:58;36.35;;;4.05;;
75220;SDS011;63802;53.232;6.570;2023-11-19T03:25:27;33.65;;;5.05;;
75220;SDS011;63802;53.232;6.570;2023-11-19T03:27:58;34.10;;;4.47;;
75220;SDS011;63802;53.232;6.570;2023-11-19T03:30:25;25.00;;;3.90;;
75220;SDS011;63802;53.232;6.570;2023-11-19T03:32:50;26.88;;;4.15;;
75220;SDS011;63802;53.232;6.570;2023-11-19T03:35:16;29.42;;;3.90;;
75220;SDS011;63802;53.232;6.570;2023-11-19T03:37:41;24.92;;;4.55;;
75220;SDS011;63802;53.232;6.570;2023-11-19T03:40:08;32.45;;;4.82;;
75220;SDS011;63802;53.232;6.570;2023-11-19T03:45:06;28.52;;;4.32;;
75220;SDS011;63802;53.232;6.570;2023-11-19T03:47:33;22.48;;;3.72;;
75220;SDS011;63802;53.232;6.570;2023-11-19T03:50:02;21.35;;;4.13;;
75220;SDS011;63802;53.232;6.570;2023-11-19T03:52:28;40.65;;;4.80;;
75220;SDS011;63802;53.232;6.570;2023-11-19T03:54:56;19.48;;;4.75;;
75220;SDS011;63802;53.232;6.570;2023-11-19T03:57:22;31.98;;;4.35;;
75220;SDS011;63802;53.232;6.570;2023-11-19T03:59:48;38.78;;;4.28;;
75220;SDS011;63802;53.232;6.570;2023-11-19T04:02:16;27.02;;;3.70;;
75220;SDS011;63802;53.232;6.570;2023-11-19T04:04:42;33.90;;;4.40;;
75220;SDS011;63802;53.232;6.570;2023-11-19T04:07:07;26.40;;;4.07;;
75220;SDS011;63802;53.232;6.570;2023-11-19T04:09:33;26.55;;;5.38;;
75220;SDS011;63802;53.232;6.570;2023-11-19T04:12:00;36.17;;;4.95;;
75220;SDS011;63802;53.232;6.570;2023-11-19T04:14:26;39.05;;;5.55;;
75220;SDS011;63802;53.232;6.570;2023-11-19T04:16:52;19.50;;;3.35;;
75220;SDS011;63802;53.232;6.570;2023-11-19T04:19:18;30.75;;;4.13;;
75220;SDS011;63802;53.232;6.570;2023-11-19T04:21:43;23.38;;;3.78;;
75220;SDS011;63802;53.232;6.570;2023-11-19T04:24:09;46.10;;;6.75;;
75220;SDS011;63802;53.232;6.570;2023-11-19T04:29:15;30.02;;;4.95;;
75220;SDS011;63802;53.232;6.570;2023-11-19T04:31:42;30.73;;;4.60;;
75220;SDS011;63802;53.232;6.570;2023-11-19T04:34:08;21.80;;;4.55;;
75220;SDS011;63802;53.232;6.570;2023-11-19T04:36:33;35.00;;;4.75;;
75220;SDS011;63802;53.232;6.570;2023-11-19T04:38:59;27.67;;;5.28;;
75220;SDS011;63802;53.232;6.570;2023-11-19T04:41:26;29.38;;;4.82;;
75220;SDS011;63802;53.232;6.570;2023-11-19T04:43:55;41.63;;;5.93;;
75220;SDS011;63802;53.232;6.570;2023-11-19T04:46:20;36.08;;;5.53;;
75220;SDS011;63802;53.232;6.570;2023-11-19T04:48:46;30.17;;;4.28;;
75220;SDS011;63802;53.232;6.570;2023-11-19T04:51:11;33.95;;;4.38;;
75220;SDS011;63802;53.232;6.570;2023-11-19T04:53:36;31.85;;;4.50;;
75220;SDS011;63802;53.232;6.570;2023-11-19T04:56:07;37.15;;;5.10;;
75220;SDS011;63802;53.232;6.570;2023-11-19T04:58:34;29.88;;;4.97;;
75220;SDS011;63802;53.232;6.570;2023-11-19T05:01:00;27.60;;;4.57;;
75220;SDS011;63802;53.232;6.570;2023-11-19T05:03:26;31.52;;;4.63;;
75220;SDS011;63802;53.232;6.570;2023-11-19T05:05:52;33.15;;;4.63;;
75220;SDS011;63802;53.232;6.570;2023-11-19T05:08:18;34.95;;;4.32;;
75220;SDS011;63802;53.232;6.570;2023-11-19T05:10:44;26.83;;;5.18;;
75220;SDS011;63802;53.232;6.570;2023-11-19T05:13:09;28.20;;;5.15;;
75220;SDS011;63802;53.232;6.570;2023-11-19T05:15:35;41.38;;;5.97;;
75220;SDS011;63802;53.232;6.570;2023-11-19T05:18:00;30.65;;;5.35;;
75220;SDS011;63802;53.232;6.570;2023-11-19T05:20:26;31.35;;;5.65;;
75220;SDS011;63802;53.232;6.570;2023-11-19T05:22:51;38.00;;;4.90;;
75220;SDS011;63802;53.232;6.570;2023-11-19T05:25:18;38.05;;;5.25;;
75220;SDS011;63802;53.232;6.570;2023-11-19T05:27:45;34.35;;;4.72;;
75220;SDS011;63802;53.232;6.570;2023-11-19T05:30:11;42.67;;;5.78;;
75220;SDS011;63802;53.232;6.570;2023-11-19T05:32:36;41.47;;;5.43;;
75220;SDS011;63802;53.232;6.570;2023-11-19T05:35:02;32.78;;;4.97;;
75220;SDS011;63802;53.232;6.570;2023-11-19T05:37:28;34.03;;;5.10;;
75220;SDS011;63802;53.232;6.570;2023-11-19T05:39:53;35.53;;;5.05;;
75220;SDS011;63802;53.232;6.570;2023-11-19T05:42:18;32.10;;;4.22;;
75220;SDS011;63802;53.232;6.570;2023-11-19T05:44:44;25.92;;;4.28;;
75220;SDS011;63802;53.232;6.570;2023-11-19T05:47:09;34.00;;;5.50;;
75220;SDS011;63802;53.232;6.570;2023-11-19T05:49:35;36.28;;;5.10;;
75220;SDS011;63802;53.232;6.570;2023-11-19T05:52:00;23.65;;;4.15;;
75220;SDS011;63802;53.232;6.570;2023-11-19T05:54:28;33.33;;;5.03;;
75220;SDS011;63802;53.232;6.570;2023-11-19T05:56:54;43.00;;;6.30;;
75220;SDS011;63802;53.232;6.570;2023-11-19T05:59:19;26.65;;;4.65;;
75220;SDS011;63802;53.232;6.570;2023-11-19T06:01:45;33.40;;;4.70;;
75220;SDS011;63802;53.232;6.570;2023-11-19T06:04:11;32.17;;;4.45;;
75220;SDS011;63802;53.232;6.570;2023-11-19T06:06:37;30.35;;;4.90;;
75220;SDS011;63802;53.232;6.570;2023-11-19T06:09:03;39.67;;;5.63;;
75220;SDS011;63802;53.232;6.570;2023-11-19T06:11:30;27.05;;;4.88;;
75220;SDS011;63802;53.232;6.570;2023-11-19T06:13:56;33.70;;;4.40;;
75220;SDS011;63802;53.232;6.570;2023-11-19T06:16:22;33.90;;;5.25;;
75220;SDS011;63802;53.232;6.570;2023-11-19T06:18:48;34.45;;;5.13;;
75220;SDS011;63802;53.232;6.570;2023-11-19T06:21:13;35.08;;;5.13;;
75220;SDS011;63802;53.232;6.570;2023-11-19T06:23:38;29.08;;;5.15;;
75220;SDS011;63802;53.232;6.570;2023-11-19T06:26:04;43.47;;;5.82;;
75220;SDS011;63802;53.232;6.570;2023-11-19T06:28:30;32.25;;;5.57;;
75220;SDS011;63802;53.232;6.570;2023-11-19T06:30:56;35.20;;;4.95;;
75220;SDS011;63802;53.232;6.570;2023-11-19T06:33:23;23.02;;;3.90;;
75220;SDS011;63802;53.232;6.570;2023-11-19T06:35:49;38.97;;;5.07;;
75220;SDS011;63802;53.232;6.570;2023-11-19T06:38:14;36.05;;;4.70;;
75220;SDS011;63802;53.232;6.570;2023-11-19T06:40:40;28.85;;;4.20;;
75220;SDS011;63802;53.232;6.570;2023-11-19T06:43:06;36.05;;;6.22;;
75220;SDS011;63802;53.232;6.570;2023-11-19T06:45:34;37.80;;;5.22;;
75220;SDS011;63802;53.232;6.570;2023-11-19T06:48:03;35.20;;;4.45;;
75220;SDS011;63802;53.232;6.570;2023-11-19T06:50:29;34.80;;;6.00;;
75220;SDS011;63802;53.232;6.570;2023-11-19T06:52:55;38.22;;;4.72;;
75220;SDS011;63802;53.232;6.570;2023-11-19T06:55:20;28.77;;;5.45;;
75220;SDS011;63802;53.232;6.570;2023-11-19T06:57:49;39.10;;;5.75;;
75220;SDS011;63802;53.232;6.570;2023-11-19T07:00:14;44.28;;;6.18;;
75220;SDS011;63802;53.232;6.570;2023-11-19T07:02:40;33.22;;;4.93;;
75220;SDS011;63802;53.232;6.570;2023-11-19T07:05:06;38.63;;;5.15;;
75220;SDS011;63802;53.232;6.570;2023-11-19T07:07:33;28.02;;;4.28;;
75220;SDS011;63802;53.232;6.570;2023-11-19T07:09:58;34.42;;;6.10;;
75220;SDS011;63802;53.232;6.570;2023-11-19T07:12:24;29.17;;;4.55;;
75220;SDS011;63802;53.232;6.570;2023-11-19T07:14:52;34.67;;;5.15;;
75220;SDS011;63802;53.232;6.570;2023-11-19T07:17:18;29.73;;;4.53;;
75220;SDS011;63802;53.232;6.570;2023-11-19T07:19:49;28.95;;;4.70;;
75220;SDS011;63802;53.232;6.570;2023-11-19T07:24:40;29.13;;;3.83;;
75220;SDS011;63802;53.232;6.570;2023-11-19T07:27:06;31.88;;;5.95;;
75220;SDS011;63802;53.232;6.570;2023-11-19T07:29:33;34.20;;;5.25;;
75220;SDS011;63802;53.232;6.570;2023-11-19T07:31:59;29.08;;;4.82;;
75220;SDS011;63802;53.232;6.570;2023-11-19T07:34:27;41.38;;;5.80;;
75220;SDS011;63802;53.232;6.570;2023-11-19T07:36:52;28.77;;;4.40;;
75220;SDS011;63802;53.232;6.570;2023-11-19T07:39:18;35.10;;;4.95;;
75220;SDS011;63802;53.232;6.570;2023-11-19T07:41:43;23.92;;;4.78;;
75220;SDS011;63802;53.232;6.570;2023-11-19T07:44:08;37.08;;;6.40;;
75220;SDS011;63802;53.232;6.570;2023-11-19T07:46:34;31.40;;;4.65;;
75220;SDS011;63802;53.232;6.570;2023-11-19T07:48:59;34.25;;;5.28;;
75220;SDS011;63802;53.232;6.570;2023-11-19T07:51:28;35.97;;;6.63;;
75220;SDS011;63802;53.232;6.570;2023-11-19T07:53:56;38.85;;;4.60;;
75220;SDS011;63802;53.232;6.570;2023-11-19T07:56:22;25.05;;;4.40;;
75220;SDS011;63802;53.232;6.570;2023-11-19T07:58:53;32.90;;;4.93;;
75220;SDS011;63802;53.232;6.570;2023-11-19T08:01:18;31.77;;;5.10;;
75220;SDS011;63802;53.232;6.570;2023-11-19T08:03:44;35.70;;;5.32;;
75220;SDS011;63802;53.232;6.570;2023-11-19T08:06:09;31.35;;;5.25;;
75220;SDS011;63802;53.232;6.570;2023-11-19T08:08:35;36.88;;;5.10;;
75220;SDS011;63802;53.232;6.570;2023-11-19T08:11:03;28.67;;;5.07;;
75220;SDS011;63802;53.232;6.570;2023-11-19T08:13:30;26.83;;;4.28;;
75220;SDS011;63802;53.232;6.570;2023-11-19T08:15:57;35.10;;;4.78;;
75220;SDS011;63802;53.232;6.570;2023-11-19T08:18:23;28.33;;;4.28;;
75220;SDS011;63802;53.232;6.570;2023-11-19T08:20:49;33.03;;;4.50;;
75220;SDS011;63802;53.232;6.570;2023-11-19T08:23:17;30.02;;;4.13;;
75220;SDS011;63802;53.232;6.570;2023-11-19T08:25:43;31.73;;;3.95;;
75220;SDS011;63802;53.232;6.570;2023-11-19T08:28:09;21.67;;;3.40;;
75220;SDS011;63802;53.232;6.570;2023-11-19T08:30:35;34.72;;;4.20;;
75220;SDS011;63802;53.232;6.570;2023-11-19T08:33:00;28.42;;;5.07;;
75220;SDS011;63802;53.232;6.570;2023-11-19T08:35:28;27.02;;;4.50;;
75220;SDS011;63802;53.232;6.570;2023-11-19T08:37:54;36.53;;;4.30;;
75220;SDS011;63802;53.232;6.570;2023-11-19T08:40:19;42.28;;;4.95;;
75220;SDS011;63802;53.232;6.570;2023-11-19T08:42:45;35.78;;;4.38;;
75220;SDS011;63802;53.232;6.570;2023-11-19T08:45:12;34.63;;;5.32;;
75220;SDS011;63802;53.232;6.570;2023-11-19T08:47:40;27.73;;;4.22;;
75220;SDS011;63802;53.232;6.570;2023-11-19T08:50:06;42.55;;;6.25;;
75220;SDS011;63802;53.232;6.570;2023-11-19T08:52:31;25.55;;;4.53;;
75220;SDS011;63802;53.232;6.570;2023-11-19T08:54:58;22.85;;;3.92;;
75220;SDS011;63802;53.232;6.570;2023-11-19T08:57:23;34.25;;;4.20;;
75220;SDS011;63802;53.232;6.570;2023-11-19T08:59:48;29.63;;;4.18;;
75220;SDS011;63802;53.232;6.570;2023-11-19T09:02:14;26.63;;;4.03;;
75220;SDS011;63802;53.232;6.570;2023-11-19T09:04:43;29.73;;;4.38;;
75220;SDS011;63802;53.232;6.570;2023-11-19T09:07:09;24.13;;;4.00;;
75220;SDS011;63802;53.232;6.570;2023-11-19T09:09:35;23.42;;;3.80;;
75220;SDS011;63802;53.232;6.570;2023-11-19T09:12:01;24.05;;;3.55;;
75220;SDS011;63802;53.232;6.570;2023-11-19T09:14:27;39.13;;;4.63;;
75220;SDS011;63802;53.232;6.570;2023-11-19T09:16:52;30.73;;;4.40;;
75220;SDS011;63802;53.232;6.570;2023-11-19T09:19:18;25.83;;;4.72;;
75220;SDS011;63802;53.232;6.570;2023-11-19T09:21:43;27.73;;;3.95;;
75220;SDS011;63802;53.232;6.570;2023-11-19T09:24:09;35.53;;;5.20;;
75220;SDS011;63802;53.232;6.570;2023-11-19T09:26:34;36.55;;;4.00;;
75220;SDS011;63802;53.232;6.570;2023-11-19T09:29:01;21.55;;;3.75;;
75220;SDS011;63802;53.232;6.570;2023-11-19T09:31:27;30.83;;;5.38;;
75220;SDS011;63802;53.232;6.570;2023-11-19T09:33:52;28.30;;;4.43;;
75220;SDS011;63802;53.232;6.570;2023-11-19T09:36:18;35.10;;;4.95;;
75220;SDS011;63802;53.232;6.570;2023-11-19T09:38:44;33.20;;;4.45;;
75220;SDS011;63802;53.232;6.570;2023-11-19T09:41:09;30.65;;;4.35;;
75220;SDS011;63802;53.232;6.570;2023-11-19T09:43:37;28.83;;;4.82;;
75220;SDS011;63802;53.232;6.570;2023-11-19T09:46:09;30.00;;;4.78;;
75220;SDS011;63802;53.232;6.570;2023-11-19T09:48:38;26.00;;;4.10;;
75220;SDS011;63802;53.232;6.570;2023-11-19T09:51:08;23.95;;;4.50;;
75220;SDS011;63802;53.232;6.570;2023-11-19T09:53:35;27.13;;;4.13;;
75220;SDS011;63802;53.232;6.570;2023-11-19T09:56:04;30.67;;;4.72;;
75220;SDS011;63802;53.232;6.570;2023-11-19T09:58:34;25.95;;;3.92;;
75220;SDS011;63802;53.232;6.570;2023-11-19T10:00:59;34.35;;;5.22;;
75220;SDS011;63802;53.232;6.570;2023-11-19T10:03:29;26.60;;;4.05;;
75220;SDS011;63802;53.232;6.570;2023-11-19T10:05:57;32.33;;;4.38;;
75220;SDS011;63802;53.232;6.570;2023-11-19T10:08:23;24.20;;;3.50;;
75220;SDS011;63802;53.232;6.570;2023-11-19T10:10:48;26.65;;;4.28;;
75220;SDS011;63802;53.232;6.570;2023-11-19T10:13:14;34.30;;;5.47;;
75220;SDS011;63802;53.232;6.570;2023-11-19T10:15:40;21.92;;;3.70;;
75220;SDS011;63802;53.232;6.570;2023-11-19T10:18:05;27.73;;;4.03;;
75220;SDS011;63802;53.232;6.570;2023-11-19T10:20:37;30.42;;;3.67;;
75220;SDS011;63802;53.232;6.570;2023-11-19T10:23:05;28.17;;;4.57;;
75220;SDS011;63802;53.232;6.570;2023-11-19T10:25:30;38.15;;;4.97;;
75220;SDS011;63802;53.232;6.570;2023-11-19T10:27:59;30.15;;;4.72;;
75220;SDS011;63802;53.232;6.570;2023-11-19T10:30:29;26.75;;;4.78;;
75220;SDS011;63802;53.232;6.570;2023-11-19T10:35:54;27.65;;;2.95;;
75220;SDS011;63802;53.232;6.570;2023-11-19T10:40:50;25.42;;;4.03;;
75220;SDS011;63802;53.232;6.570;2023-11-19T10:43:17;19.75;;;3.70;;
75220;SDS011;63802;53.232;6.570;2023-11-19T10:45:43;23.60;;;4.35;;
75220;SDS011;63802;53.232;6.570;2023-11-19T10:48:08;26.20;;;3.40;;
75220;SDS011;63802;53.232;6.570;2023-11-19T10:50:35;22.63;;;3.58;;
75220;SDS011;63802;53.232;6.570;2023-11-19T10:53:02;20.23;;;3.50;;
75220;SDS011;63802;53.232;6.570;2023-11-19T10:55:30;29.75;;;3.80;;
75220;SDS011;63802;53.232;6.570;2023-11-19T10:57:58;26.02;;;4.55;;
75220;SDS011;63802;53.232;6.570;2023-11-19T11:00:25;26.10;;;4.00;;
75220;SDS011;63802;53.232;6.570;2023-11-19T11:02:54;26.35;;;3.88;;
75220;SDS011;63802;53.232;6.570;2023-11-19T11:05:22;24.85;;;4.32;;
75220;SDS011;63802;53.232;6.570;2023-11-19T11:07:47;24.48;;;3.70;;
75220;SDS011;63802;53.232;6.570;2023-11-19T11:10:18;24.25;;;3.97;;
75220;SDS011;63802;53.232;6.570;2023-11-19T11:12:47;24.40;;;3.90;;
75220;SDS011;63802;53.232;6.570;2023-11-19T11:15:15;29.40;;;4.28;;
75220;SDS011;63802;53.232;6.570;2023-11-19T11:17:43;24.63;;;4.00;;
75220;SDS011;63802;53.232;6.570;2023-11-19T11:20:11;28.70;;;4.05;;
75220;SDS011;63802;53.232;6.570;2023-11-19T11:22:57;22.67;;;3.88;;
75220;SDS011;63802;53.232;6.570;2023-11-19T11:25:45;23.75;;;4.82;;
75220;SDS011;63802;53.232;6.570;2023-11-19T11:28:37;25.30;;;3.60;;
75220;SDS011;63802;53.232;6.570;2023-11-19T11:34:02;24.48;;;3.67;;
75220;SDS011;63802;53.232;6.570;2023-11-19T11:39:32;30.23;;;4.18;;
75220;SDS011;63802;53.232;6.570;2023-11-19T11:44:58;27.90;;;4.07;;
75220;SDS011;63802;53.232;6.570;2023-11-19T11:50:10;33.38;;;3.60;;
75220;SDS011;63802;53.232;6.570;2023-11-19T11:55:37;21.45;;;3.60;;
75220;SDS011;63802;53.232;6.570;2023-11-19T11:58:20;26.30;;;4.72;;
75220;SDS011;63802;53.232;6.570;2023-11-19T12:00:59;19.50;;;4.43;;
75220;SDS011;63802;53.232;6.570;2023-11-19T12:03:27;28.13;;;4.07;;
75220;SDS011;63802;53.232;6.570;2023-11-19T12:05:54;32.63;;;3.55;;
75220;SDS011;63802;53.232;6.570;2023-11-19T12:08:20;27.13;;;5.43;;
75220;SDS011;63802;53.232;6.570;2023-11-19T12:10:51;25.02;;;3.58;;
75220;SDS011;63802;53.232;6.570;2023-11-19T12:13:17;22.83;;;4.13;;
75220;SDS011;63802;53.232;6.570;2023-11-19T12:18:23;24.20;;;4.63;;
75220;SDS011;63802;53.232;6.570;2023-11-19T12:20:49;21.88;;;3.90;;
75220;SDS011;63802;53.232;6.570;2023-11-19T12:23:18;25.48;;;3.80;;
75220;SDS011;63802;53.232;6.570;2023-11-19T12:25:43;25.85;;;4.05;;
75220;SDS011;63802;53.232;6.570;2023-11-19T12:28:14;17.15;;;3.30;;
75220;SDS011;63802;53.232;6.570;2023-11-19T12:30:44;22.92;;;3.65;;
75220;SDS011;63802;53.232;6.570;2023-11-19T12:33:11;36.92;;;4.63;;
75220;SDS011;63802;53.232;6.570;2023-11-19T12:35:41;29.20;;;3.92;;
75220;SDS011;63802;53.232;6.570;2023-11-19T12:38:07;22.40;;;3.92;;
75220;SDS011;63802;53.232;6.570;2023-11-19T12:40:33;37.15;;;4.40;;
75220;SDS011;63802;53.232;6.570;2023-11-19T12:42:58;24.38;;;4.10;;
75220;SDS011;63802;53.232;6.570;2023-11-19T12:45:27;30.05;;;5.18;;
75220;SDS011;63802;53.232;6.570;2023-11-19T12:48:08;20.98;;;3.67;;
75220;SDS011;63802;53.232;6.570;2023-11-19T12:53:18;21.13;;;3.65;;
75220;SDS011;63802;53.232;6.570;2023-11-19T12:55:44;24.77;;;3.65;;
75220;SDS011;63802;53.232;6.570;2023-11-19T12:58:10;24.90;;;3.78;;
75220;SDS011;63802;53.232;6.570;2023-11-19T13:00:35;19.40;;;4.10;;
75220;SDS011;63802;53.232;6.570;2023-11-19T13:03:00;21.63;;;3.60;;
75220;SDS011;63802;53.232;6.570;2023-11-19T13:05:30;24.00;;;3.35;;
75220;SDS011;63802;53.232;6.570;2023-11-19T13:08:04;24.45;;;3.63;;
75220;SDS011;63802;53.232;6.570;2023-11-19T13:10:52;21.02;;;3.83;;
75220;SDS011;63802;53.232;6.570;2023-11-19T13:13:18;20.20;;;3.30;;
75220;SDS011;63802;53.232;6.570;2023-11-19T13:15:44;20.85;;;3.70;;
75220;SDS011;63802;53.232;6.570;2023-11-19T13:18:13;27.35;;;4.32;;
75220;SDS011;63802;53.232;6.570;2023-11-19T13:20:41;17.48;;;3.67;;
75220;SDS011;63802;53.232;6.570;2023-11-19T13:23:06;27.02;;;4.18;;
75220;SDS011;63802;53.232;6.570;2023-11-19T13:25:33;19.65;;;3.85;;
75220;SDS011;63802;53.232;6.570;2023-11-19T13:27:58;23.65;;;4.00;;
75220;SDS011;63802;53.232;6.570;2023-11-19T13:30:24;17.33;;;3.30;;
75220;SDS011;63802;53.232;6.570;2023-11-19T13:32:51;22.10;;;3.65;;
75220;SDS011;63802;53.232;6.570;2023-11-19T13:35:19;26.85;;;3.30;;
75220;SDS011;63802;53.232;6.570;2023-11-19T13:37:45;24.90;;;3.63;;
75220;SDS011;63802;53.232;6.570;2023-11-19T13:40:11;27.55;;;4.13;;
75220;SDS011;63802;53.232;6.570;2023-11-19T13:42:39;22.98;;;3.55;;
75220;SDS011;63802;53.232;6.570;2023-11-19T13:45:10;20.67;;;3.38;;
75220;SDS011;63802;53.232;6.570;2023-11-19T13:47:42;16.00;;;2.78;;
75220;SDS011;63802;53.232;6.570;2023-11-19T13:50:12;22.58;;;3.47;;
75220;SDS011;63802;53.232;6.570;2023-11-19T13:52:41;26.17;;;4.15;;
75220;SDS011;63802;53.232;6.570;2023-11-19T13:55:08;21.20;;;3.63;;
75220;SDS011;63802;53.232;6.570;2023-11-19T13:57:35;19.60;;;3.08;;
75220;SDS011;63802;53.232;6.570;2023-11-19T14:00:02;31.38;;;3.88;;
75220;SDS011;63802;53.232;6.570;2023-11-19T14:02:35;22.25;;;3.45;;
75220;SDS011;63802;53.232;6.570;2023-11-19T14:05:00;20.45;;;3.40;;
75220;SDS011;63802;53.232;6.570;2023-11-19T14:07:26;24.90;;;3.75;;
75220;SDS011;63802;53.232;6.570;2023-11-19T14:09:53;24.00;;;3.63;;
75220;SDS011;63802;53.232;6.570;2023-11-19T14:12:21;25.00;;;3.72;;
75220;SDS011;63802;53.232;6.570;2023-11-19T14:14:47;21.00;;;3.40;;
75220;SDS011;63802;53.232;6.570;2023-11-19T14:17:12;16.65;;;2.80;;
75220;SDS011;63802;53.232;6.570;2023-11-19T14:19:38;20.77;;;3.25;;
75220;SDS011;63802;53.232;6.570;2023-11-19T14:22:04;29.92;;;4.43;;
75220;SDS011;63802;53.232;6.570;2023-11-19T14:24:30;20.20;;;4.00;;
75220;SDS011;63802;53.232;6.570;2023-11-19T14:26:56;29.80;;;4.35;;
75220;SDS011;63802;53.232;6.570;2023-11-19T14:29:23;23.38;;;4.32;;
75220;SDS011;63802;53.232;6.570;2023-11-19T14:31:51;23.98;;;4.07;;
75220;SDS011;63802;53.232;6.570;2023-11-19T14:34:17;22.77;;;3.80;;
75220;SDS011;63802;53.232;6.570;2023-11-19T14:36:44;25.10;;;4.30;;
75220;SDS011;63802;53.232;6.570;2023-11-19T14:39:09;19.30;;;3.38;;
75220;SDS011;63802;53.232;6.570;2023-11-19T14:41:35;24.38;;;3.13;;
75220;SDS011;63802;53.232;6.570;2023-11-19T14:44:00;24.45;;;4.32;;
75220;SDS011;63802;53.232;6.570;2023-11-19T14:46:26;30.83;;;3.70;;
75220;SDS011;63802;53.232;6.570;2023-11-19T14:48:52;22.98;;;4.95;;
75220;SDS011;63802;53.232;6.570;2023-11-19T14:51:17;31.00;;;4.25;;
75220;SDS011;63802;53.232;6.570;2023-11-19T14:53:43;24.75;;;3.15;;
75220;SDS011;63802;53.232;6.570;2023-11-19T14:56:11;20.45;;;3.40;;
75220;SDS011;63802;53.232;6.570;2023-11-19T14:58:40;30.67;;;4.28;;
75220;SDS011;63802;53.232;6.570;2023-11-19T15:01:05;19.17;;;3.35;;
75220;SDS011;63802;53.232;6.570;2023-11-19T15:03:32;25.77;;;3.83;;
75220;SDS011;63802;53.232;6.570;2023-11-19T15:05:58;25.05;;;3.13;;
75220;SDS011;63802;53.232;6.570;2023-11-19T15:08:23;20.40;;;3.58;;